sensor_id;sensor_type;location;lat;lon;timestamp;pressure;altitude;pressure_sealevel;temperature;humidity
69127;BME280;56688;50.234;19.292;2023-10-19T00:00:36;97930.75;;;-0.07;75.80
69127;BME280;56688;50.234;19.292;2023-10-19T00:03:06;97928.71;;;-0.12;75.51
69127;BME280;56688;50.234;19.292;2023-10-19T00:05:33;97926.90;;;-0.13;75.51
69127;BME280;56688;50.234;19.292;2023-10-19T00:08:02;97925.60;;;-0.12;75.54
69127;BME280;56688;50.234;19.292;2023-10-19T00:10:47;97921.01;;;-0.10;75.64
69127;BME280;56688;50.234;19.292;2023-10-19T00:13:16;97917.63;;;-0.09;75.46
69127;BME280;56688;50.234;19.292;2023-10-19T00:15:45;97918.46;;;-0.09;75.18
69127;BME280;56688;50.234;19.292;2023-10-19T00:18:15;97915.98;;;-0.10;75.22
69127;BME280;56688;50.234;19.292;2023-10-19T00:20:44;97914.33;;;-0.14;75.16
69127;BME280;56688;50.234;19.292;2023-10-19T00:23:13;97914.55;;;-0.18;75.05
69127;BME280;56688;50.234;19.292;2023-10-19T00:25:45;97909.55;;;-0.21;75.47
69127;BME280;56688;50.234;19.292;2023-10-19T00:28:18;97904.30;;;-0.23;75.74
69127;BME280;56688;50.234;19.292;2023-10-19T00:30:45;97901.02;;;-0.19;75.90
69127;BME280;56688;50.234;19.292;2023-10-19T00:33:16;97896.73;;;-0.16;75.97
69127;BME280;56688;50.234;19.292;2023-10-19T00:35:55;97889.36;;;-0.12;76.74
69127;BME280;56688;50.234;19.292;2023-10-19T00:38:39;97881.96;;;-0.08;77.03
69127;BME280;56688;50.234;19.292;2023-10-19T00:41:07;97878.85;;;-0.08;77.05
69127;BME280;56688;50.234;19.292;2023-10-19T00:43:41;97871.41;;;-0.05;76.78
69127;BME280;56688;50.234;19.292;2023-10-19T00:49:01;97871.23;;;-0.11;77.13
69127;BME280;56688;50.234;19.292;2023-10-19T00:51:31;97867.36;;;-0.09;77.02
69127;BME280;56688;50.234;19.292;2023-10-19T00:54:07;97867.17;;;-0.05;77.16
69127;BME280;56688;50.234;19.292;2023-10-19T00:56:36;97860.10;;;-0.00;76.92
69127;BME280;56688;50.234;19.292;2023-10-19T00:59:04;97859.08;;;0.04;76.66
69127;BME280;56688;50.234;19.292;2023-10-19T01:01:41;97855.13;;;0.05;76.34
69127;BME280;56688;50.234;19.292;2023-10-19T01:04:15;97853.25;;;0.04;76.07
69127;BME280;56688;50.234;19.292;2023-10-19T01:06:47;97846.34;;;0.03;75.79
69127;BME280;56688;50.234;19.292;2023-10-19T01:09:29;97843.06;;;0.00;76.03
69127;BME280;56688;50.234;19.292;2023-10-19T01:12:02;97834.74;;;-0.03;75.92
69127;BME280;56688;50.234;19.292;2023-10-19T01:17:34;97831.31;;;-0.09;75.76
69127;BME280;56688;50.234;19.292;2023-10-19T01:20:08;97825.17;;;-0.11;75.93
69127;BME280;56688;50.234;19.292;2023-10-19T01:22:49;97818.14;;;-0.09;76.27
69127;BME280;56688;50.234;19.292;2023-10-19T01:25:20;97813.45;;;-0.05;76.04
69127;BME280;56688;50.234;19.292;2023-10-19T01:27:55;97808.71;;;-0.03;75.98
69127;BME280;56688;50.234;19.292;2023-10-19T01:30:24;97809.17;;;-0.02;75.34
69127;BME280;56688;50.234;19.292;2023-10-19T01:32:53;97805.02;;;-0.05;75.39
69127;BME280;56688;50.234;19.292;2023-10-19T01:35:20;97804.77;;;-0.06;75.71
69127;BME280;56688;50.234;19.292;2023-10-19T01:37:47;97802.77;;;-0.09;75.40
69127;BME280;56688;50.234;19.292;2023-10-19T01:40:14;97796.02;;;-0.15;75.28
69127;BME280;56688;50.234;19.292;2023-10-19T01:42:47;97790.02;;;-0.17;75.43
69127;BME280;56688;50.234;19.292;2023-10-19T01:45:14;97780.44;;;-0.19;76.08
69127;BME280;56688;50.234;19.292;2023-10-19T01:47:41;97779.61;;;-0.16;76.17
69127;BME280;56688;50.234;19.292;2023-10-19T01:50:09;97777.77;;;-0.13;76.52
69127;BME280;56688;50.234;19.292;2023-10-19T01:52:46;97773.99;;;-0.10;76.82
69127;BME280;56688;50.234;19.292;2023-10-19T01:55:13;97771.59;;;-0.05;76.88
69127;BME280;56688;50.234;19.292;2023-10-19T01:57:40;97775.21;;;-0.04;76.88
69127;BME280;56688;50.234;19.292;2023-10-19T02:00:07;97772.40;;;-0.10;76.89
69127;BME280;56688;50.234;19.292;2023-10-19T02:02:39;97764.96;;;-0.11;77.26
69127;BME280;56688;50.234;19.292;2023-10-19T02:05:07;97756.70;;;-0.11;77.51
69127;BME280;56688;50.234;19.292;2023-10-19T02:07:40;97749.80;;;-0.08;77.84
69127;BME280;56688;50.234;19.292;2023-10-19T02:10:07;97745.95;;;-0.04;77.85
69127;BME280;56688;50.234;19.292;2023-10-19T02:12:37;97744.88;;;-0.02;77.37
69127;BME280;56688;50.234;19.292;2023-10-19T02:15:04;97741.64;;;-0.01;77.26
69127;BME280;56688;50.234;19.292;2023-10-19T02:17:31;97736.45;;;0.00;77.34
69127;BME280;56688;50.234;19.292;2023-10-19T02:20:01;97734.83;;;0.01;77.53
69127;BME280;56688;50.234;19.292;2023-10-19T02:22:49;97735.36;;;0.01;77.41
69127;BME280;56688;50.234;19.292;2023-10-19T02:25:19;97733.63;;;-0.02;77.58
69127;BME280;56688;50.234;19.292;2023-10-19T02:27:46;97731.60;;;-0.04;77.47
69127;BME280;56688;50.234;19.292;2023-10-19T02:30:13;97728.55;;;-0.04;77.60
69127;BME280;56688;50.234;19.292;2023-10-19T02:32:40;97725.77;;;-0.04;77.35
69127;BME280;56688;50.234;19.292;2023-10-19T02:35:09;97715.90;;;-0.05;76.97
69127;BME280;56688;50.234;19.292;2023-10-19T02:37:36;97710.21;;;-0.06;76.99
69127;BME280;56688;50.234;19.292;2023-10-19T02:40:05;97706.73;;;-0.06;76.65
69127;BME280;56688;50.234;19.292;2023-10-19T02:42:39;97701.42;;;-0.09;75.99
69127;BME280;56688;50.234;19.292;2023-10-19T02:45:07;97692.75;;;-0.16;75.96
69127;BME280;56688;50.234;19.292;2023-10-19T02:47:34;97689.92;;;-0.21;76.12
69127;BME280;56688;50.234;19.292;2023-10-19T02:50:02;97692.34;;;-0.28;75.98
69127;BME280;56688;50.234;19.292;2023-10-19T02:52:37;97689.61;;;-0.35;75.94
69127;BME280;56688;50.234;19.292;2023-10-19T02:55:04;97688.70;;;-0.38;76.50
69127;BME280;56688;50.234;19.292;2023-10-19T02:57:32;97688.79;;;-0.37;76.78
69127;BME280;56688;50.234;19.292;2023-10-19T02:59:59;97690.00;;;-0.37;76.44
69127;BME280;56688;50.234;19.292;2023-10-19T03:02:26;97686.46;;;-0.37;76.80
69127;BME280;56688;50.234;19.292;2023-10-19T03:04:53;97673.99;;;-0.34;77.01
69127;BME280;56688;50.234;19.292;2023-10-19T03:07:20;97664.48;;;-0.32;77.42
69127;BME280;56688;50.234;19.292;2023-10-19T03:09:47;97656.36;;;-0.27;77.58
69127;BME280;56688;50.234;19.292;2023-10-19T03:12:16;97646.05;;;-0.25;77.57
69127;BME280;56688;50.234;19.292;2023-10-19T03:14:44;97634.53;;;-0.22;77.86
69127;BME280;56688;50.234;19.292;2023-10-19T03:17:15;97622.81;;;-0.18;78.06
69127;BME280;56688;50.234;19.292;2023-10-19T03:19:43;97618.70;;;-0.13;78.05
69127;BME280;56688;50.234;19.292;2023-10-19T03:22:10;97616.19;;;-0.09;78.04
69127;BME280;56688;50.234;19.292;2023-10-19T03:24:38;97604.77;;;-0.04;78.16
69127;BME280;56688;50.234;19.292;2023-10-19T03:27:09;97608.85;;;0.06;78.54
69127;BME280;56688;50.234;19.292;2023-10-19T03:29:44;97608.78;;;0.14;78.26
69127;BME280;56688;50.234;19.292;2023-10-19T03:32:14;97608.70;;;0.20;78.72
69127;BME280;56688;50.234;19.292;2023-10-19T03:34:41;97601.55;;;0.22;78.87
69127;BME280;56688;50.234;19.292;2023-10-19T03:37:14;97603.48;;;0.27;79.16
69127;BME280;56688;50.234;19.292;2023-10-19T03:39:41;97601.90;;;0.37;79.60
69127;BME280;56688;50.234;19.292;2023-10-19T03:42:12;97592.58;;;0.48;80.08
69127;BME280;56688;50.234;19.292;2023-10-19T03:44:41;97590.43;;;0.63;80.29
69127;BME280;56688;50.234;19.292;2023-10-19T03:47:17;97588.19;;;0.77;80.48
69127;BME280;56688;50.234;19.292;2023-10-19T03:49:52;97588.55;;;0.91;80.75
69127;BME280;56688;50.234;19.292;2023-10-19T03:52:19;97585.58;;;1.02;80.93
69127;BME280;56688;50.234;19.292;2023-10-19T03:54:48;97587.48;;;1.11;81.41
69127;BME280;56688;50.234;19.292;2023-10-19T03:57:17;97591.71;;;1.20;81.40
69127;BME280;56688;50.234;19.292;2023-10-19T03:59:54;97585.91;;;1.30;81.42
69127;BME280;56688;50.234;19.292;2023-10-19T04:02:25;97581.14;;;1.39;81.47
69127;BME280;56688;50.234;19.292;2023-10-19T04:04:54;97575.80;;;1.51;82.10
69127;BME280;56688;50.234;19.292;2023-10-19T04:07:23;97571.70;;;1.61;82.05
69127;BME280;56688;50.234;19.292;2023-10-19T04:09:54;97565.85;;;1.74;81.47
69127;BME280;56688;50.234;19.292;2023-10-19T04:12:39;97563.94;;;1.86;81.42
69127;BME280;56688;50.234;19.292;2023-10-19T04:15:10;97564.76;;;1.97;81.68
69127;BME280;56688;50.234;19.292;2023-10-19T04:17:39;97562.94;;;2.06;81.46
69127;BME280;56688;50.234;19.292;2023-10-19T04:20:08;97555.93;;;2.14;81.14
69127;BME280;56688;50.234;19.292;2023-10-19T04:22:51;97545.48;;;2.18;81.14
69127;BME280;56688;50.234;19.292;2023-10-19T04:25:18;97532.55;;;2.21;81.01
69127;BME280;56688;50.234;19.292;2023-10-19T04:27:47;97528.45;;;2.27;80.65
69127;BME280;56688;50.234;19.292;2023-10-19T04:30:16;97529.77;;;2.33;80.60
69127;BME280;56688;50.234;19.292;2023-10-19T04:32:44;97536.59;;;2.36;80.91
69127;BME280;56688;50.234;19.292;2023-10-19T04:35:12;97532.58;;;2.43;81.04
69127;BME280;56688;50.234;19.292;2023-10-19T04:37:41;97530.56;;;2.50;80.87
69127;BME280;56688;50.234;19.292;2023-10-19T04:40:10;97530.13;;;2.60;80.51
69127;BME280;56688;50.234;19.292;2023-10-19T04:42:38;97524.69;;;2.66;80.32
69127;BME280;56688;50.234;19.292;2023-10-19T04:45:06;97519.03;;;2.69;80.22
69127;BME280;56688;50.234;19.292;2023-10-19T04:47:34;97510.46;;;2.74;79.96
69127;BME280;56688;50.234;19.292;2023-10-19T04:50:03;97506.16;;;2.78;79.84
69127;BME280;56688;50.234;19.292;2023-10-19T04:52:31;97507.89;;;2.83;79.85
69127;BME280;56688;50.234;19.292;2023-10-19T04:54:58;97507.61;;;2.91;79.93
69127;BME280;56688;50.234;19.292;2023-10-19T04:57:26;97504.84;;;3.00;80.02
69127;BME280;56688;50.234;19.292;2023-10-19T04:59:52;97498.77;;;3.09;79.83
69127;BME280;56688;50.234;19.292;2023-10-19T05:02:19;97494.48;;;3.16;79.51
69127;BME280;56688;50.234;19.292;2023-10-19T05:04:46;97489.02;;;3.21;79.20
69127;BME280;56688;50.234;19.292;2023-10-19T05:07:14;97489.15;;;3.20;79.05
69127;BME280;56688;50.234;19.292;2023-10-19T05:09:45;97492.08;;;3.17;79.09
69127;BME280;56688;50.234;19.292;2023-10-19T05:12:13;97491.52;;;3.15;79.03
69127;BME280;56688;50.234;19.292;2023-10-19T05:14:42;97489.09;;;3.13;79.31
69127;BME280;56688;50.234;19.292;2023-10-19T05:17:10;97487.81;;;3.13;79.70
69127;BME280;56688;50.234;19.292;2023-10-19T05:19:38;97482.47;;;3.18;79.90
69127;BME280;56688;50.234;19.292;2023-10-19T05:22:08;97475.66;;;3.29;80.19
69127;BME280;56688;50.234;19.292;2023-10-19T05:24:36;97472.91;;;3.40;80.28
69127;BME280;56688;50.234;19.292;2023-10-19T05:27:03;97473.05;;;3.50;80.30
69127;BME280;56688;50.234;19.292;2023-10-19T05:29:31;97465.27;;;3.58;80.17
69127;BME280;56688;50.234;19.292;2023-10-19T05:32:00;97460.16;;;3.64;79.97
69127;BME280;56688;50.234;19.292;2023-10-19T05:34:29;97464.91;;;3.69;79.34
69127;BME280;56688;50.234;19.292;2023-10-19T05:36:56;97466.03;;;3.70;79.43
69127;BME280;56688;50.234;19.292;2023-10-19T05:39:25;97469.71;;;3.74;79.35
69127;BME280;56688;50.234;19.292;2023-10-19T05:41:55;97470.59;;;3.78;79.32
69127;BME280;56688;50.234;19.292;2023-10-19T05:44:22;97467.62;;;3.84;79.41
69127;BME280;56688;50.234;19.292;2023-10-19T05:46:51;97458.29;;;3.92;79.43
69127;BME280;56688;50.234;19.292;2023-10-19T05:49:19;97455.79;;;4.02;79.48
69127;BME280;56688;50.234;19.292;2023-10-19T05:51:46;97461.79;;;4.11;79.58
69127;BME280;56688;50.234;19.292;2023-10-19T05:54:13;97463.17;;;4.19;79.12
69127;BME280;56688;50.234;19.292;2023-10-19T05:56:40;97462.54;;;4.26;78.83
69127;BME280;56688;50.234;19.292;2023-10-19T05:59:07;97460.45;;;4.32;78.74
69127;BME280;56688;50.234;19.292;2023-10-19T06:01:35;97459.80;;;4.36;78.58
69127;BME280;56688;50.234;19.292;2023-10-19T06:04:05;97460.02;;;4.41;78.39
69127;BME280;56688;50.234;19.292;2023-10-19T06:06:32;97458.78;;;4.47;78.16
69127;BME280;56688;50.234;19.292;2023-10-19T06:08:59;97452.88;;;4.55;78.43
69127;BME280;56688;50.234;19.292;2023-10-19T06:11:28;97451.89;;;4.64;78.12
69127;BME280;56688;50.234;19.292;2023-10-19T06:13:59;97449.77;;;4.73;78.00
69127;BME280;56688;50.234;19.292;2023-10-19T06:16:26;97442.73;;;4.81;77.76
69127;BME280;56688;50.234;19.292;2023-10-19T06:18:54;97438.89;;;4.86;77.30
69127;BME280;56688;50.234;19.292;2023-10-19T06:21:21;97434.98;;;4.92;77.63
69127;BME280;56688;50.234;19.292;2023-10-19T06:23:50;97430.75;;;4.97;77.26
69127;BME280;56688;50.234;19.292;2023-10-19T06:26:17;97425.22;;;4.99;77.17
69127;BME280;56688;50.234;19.292;2023-10-19T06:28:44;97418.05;;;5.04;77.06
69127;BME280;56688;50.234;19.292;2023-10-19T06:31:11;97418.75;;;5.11;76.79
69127;BME280;56688;50.234;19.292;2023-10-19T06:33:38;97420.18;;;5.19;76.80
69127;BME280;56688;50.234;19.292;2023-10-19T06:36:08;97416.29;;;5.28;76.72
69127;BME280;56688;50.234;19.292;2023-10-19T06:38:35;97417.52;;;5.39;76.50
69127;BME280;56688;50.234;19.292;2023-10-19T06:41:12;97411.45;;;5.48;76.48
69127;BME280;56688;50.234;19.292;2023-10-19T06:43:39;97408.37;;;5.56;76.08
69127;BME280;56688;50.234;19.292;2023-10-19T06:46:07;97404.55;;;5.63;76.17
69127;BME280;56688;50.234;19.292;2023-10-19T06:48:39;97399.65;;;5.69;76.09
69127;BME280;56688;50.234;19.292;2023-10-19T06:51:06;97400.45;;;5.71;75.82
69127;BME280;56688;50.234;19.292;2023-10-19T06:53:33;97396.39;;;5.75;75.27
69127;BME280;56688;50.234;19.292;2023-10-19T06:56:01;97386.54;;;5.80;75.83
69127;BME280;56688;50.234;19.292;2023-10-19T06:58:28;97390.35;;;5.90;75.75
69127;BME280;56688;50.234;19.292;2023-10-19T07:00:55;97383.38;;;5.99;75.80
69127;BME280;56688;50.234;19.292;2023-10-19T07:03:23;97379.15;;;6.08;75.61
69127;BME280;56688;50.234;19.292;2023-10-19T07:05:51;97380.58;;;6.15;75.15
69127;BME280;56688;50.234;19.292;2023-10-19T07:08:19;97376.70;;;6.22;75.35
69127;BME280;56688;50.234;19.292;2023-10-19T07:10:48;97373.44;;;6.30;75.36
69127;BME280;56688;50.234;19.292;2023-10-19T07:13:18;97366.90;;;6.37;75.19
69127;BME280;56688;50.234;19.292;2023-10-19T07:15:47;97364.24;;;6.43;75.00
69127;BME280;56688;50.234;19.292;2023-10-19T07:18:16;97362.30;;;6.47;75.08
69127;BME280;56688;50.234;19.292;2023-10-19T07:20:44;97359.60;;;6.52;74.97
69127;BME280;56688;50.234;19.292;2023-10-19T07:23:15;97348.66;;;6.61;74.33
69127;BME280;56688;50.234;19.292;2023-10-19T07:25:48;97343.88;;;6.72;74.77
69127;BME280;56688;50.234;19.292;2023-10-19T07:28:22;97342.09;;;6.82;74.83
69127;BME280;56688;50.234;19.292;2023-10-19T07:30:53;97349.99;;;6.90;75.14
69127;BME280;56688;50.234;19.292;2023-10-19T07:33:20;97355.55;;;6.98;74.88
69127;BME280;56688;50.234;19.292;2023-10-19T07:35:49;97347.90;;;7.07;74.61
69127;BME280;56688;50.234;19.292;2023-10-19T07:38:22;97337.65;;;7.12;74.04
69127;BME280;56688;50.234;19.292;2023-10-19T07:40:49;97329.05;;;7.17;74.28
69127;BME280;56688;50.234;19.292;2023-10-19T07:43:20;97327.55;;;7.26;74.10
69127;BME280;56688;50.234;19.292;2023-10-19T07:45:49;97325.87;;;7.39;73.84
69127;BME280;56688;50.234;19.292;2023-10-19T07:48:17;97315.49;;;7.59;73.89
69127;BME280;56688;50.234;19.292;2023-10-19T07:50:44;97309.23;;;7.80;73.25
69127;BME280;56688;50.234;19.292;2023-10-19T07:53:11;97313.61;;;7.97;72.61
69127;BME280;56688;50.234;19.292;2023-10-19T07:55:39;97312.30;;;8.09;72.36
69127;BME280;56688;50.234;19.292;2023-10-19T07:58:07;97307.52;;;8.17;71.45
69127;BME280;56688;50.234;19.292;2023-10-19T08:00:34;97300.58;;;8.24;71.39
69127;BME280;56688;50.234;19.292;2023-10-19T08:03:03;97305.15;;;8.35;71.18
69127;BME280;56688;50.234;19.292;2023-10-19T08:05:32;97312.22;;;8.48;71.00
69127;BME280;56688;50.234;19.292;2023-10-19T08:08:01;97308.16;;;8.59;70.72
69127;BME280;56688;50.234;19.292;2023-10-19T08:10:33;97307.14;;;8.67;70.59
69127;BME280;56688;50.234;19.292;2023-10-19T08:13:01;97302.84;;;8.75;70.41
69127;BME280;56688;50.234;19.292;2023-10-19T08:15:28;97299.10;;;8.85;70.03
69127;BME280;56688;50.234;19.292;2023-10-19T08:17:57;97295.36;;;8.95;69.72
69127;BME280;56688;50.234;19.292;2023-10-19T08:20:25;97292.36;;;9.06;69.53
69127;BME280;56688;50.234;19.292;2023-10-19T08:23:00;97292.26;;;9.11;68.96
69127;BME280;56688;50.234;19.292;2023-10-19T08:25:29;97286.08;;;9.21;69.18
69127;BME280;56688;50.234;19.292;2023-10-19T08:28:13;97280.14;;;9.36;69.15
69127;BME280;56688;50.234;19.292;2023-10-19T08:30:41;97280.46;;;9.48;68.70
69127;BME280;56688;50.234;19.292;2023-10-19T08:33:08;97280.67;;;9.56;68.81
69127;BME280;56688;50.234;19.292;2023-10-19T08:35:35;97274.12;;;9.63;67.68
69127;BME280;56688;50.234;19.292;2023-10-19T08:38:02;97259.48;;;9.69;67.07
69127;BME280;56688;50.234;19.292;2023-10-19T08:40:36;97247.42;;;9.79;67.29
69127;BME280;56688;50.234;19.292;2023-10-19T08:43:05;97249.91;;;9.88;66.41
69127;BME280;56688;50.234;19.292;2023-10-19T08:45:34;97259.12;;;9.99;65.88
69127;BME280;56688;50.234;19.292;2023-10-19T08:48:01;97260.54;;;10.10;66.18
69127;BME280;56688;50.234;19.292;2023-10-19T08:50:32;97257.73;;;10.18;65.95
69127;BME280;56688;50.234;19.292;2023-10-19T08:53:02;97252.16;;;10.30;66.02
69127;BME280;56688;50.234;19.292;2023-10-19T08:55:31;97252.85;;;10.42;66.15
69127;BME280;56688;50.234;19.292;2023-10-19T08:58:14;97257.98;;;10.58;65.79
69127;BME280;56688;50.234;19.292;2023-10-19T09:00:45;97255.95;;;10.70;65.14
69127;BME280;56688;50.234;19.292;2023-10-19T09:03:14;97254.23;;;10.81;64.45
69127;BME280;56688;50.234;19.292;2023-10-19T09:05:44;97246.43;;;10.94;64.20
69127;BME280;56688;50.234;19.292;2023-10-19T09:08:14;97243.48;;;11.05;63.92
69127;BME280;56688;50.234;19.292;2023-10-19T09:10:43;97245.21;;;11.16;63.28
69127;BME280;56688;50.234;19.292;2023-10-19T09:13:12;97241.36;;;11.23;62.60
69127;BME280;56688;50.234;19.292;2023-10-19T09:15:41;97239.96;;;11.25;62.08
69127;BME280;56688;50.234;19.292;2023-10-19T09:18:24;97227.11;;;11.28;62.80
69127;BME280;56688;50.234;19.292;2023-10-19T09:20:55;97224.00;;;11.33;62.08
69127;BME280;56688;50.234;19.292;2023-10-19T09:23:30;97225.48;;;11.36;62.38
69127;BME280;56688;50.234;19.292;2023-10-19T09:25:59;97227.03;;;11.37;62.48
69127;BME280;56688;50.234;19.292;2023-10-19T09:28:30;97226.91;;;11.37;63.27
69127;BME280;56688;50.234;19.292;2023-10-19T09:31:01;97219.16;;;11.39;63.75
69127;BME280;56688;50.234;19.292;2023-10-19T09:33:30;97214.14;;;11.45;63.60
69127;BME280;56688;50.234;19.292;2023-10-19T09:35:59;97205.83;;;11.52;62.72
69127;BME280;56688;50.234;19.292;2023-10-19T09:38:27;97199.95;;;11.58;62.71
69127;BME280;56688;50.234;19.292;2023-10-19T09:40:55;97194.75;;;11.68;62.69
69127;BME280;56688;50.234;19.292;2023-10-19T09:43:34;97190.66;;;11.78;62.66
69127;BME280;56688;50.234;19.292;2023-10-19T09:46:06;97188.90;;;11.87;62.32
69127;BME280;56688;50.234;19.292;2023-10-19T09:48:40;97185.52;;;11.88;62.46
69127;BME280;56688;50.234;19.292;2023-10-19T09:53:58;97190.00;;;11.94;63.57
69127;BME280;56688;50.234;19.292;2023-10-19T09:56:33;97192.56;;;11.95;63.78
69127;BME280;56688;50.234;19.292;2023-10-19T09:59:05;97192.84;;;11.98;63.70
69127;BME280;56688;50.234;19.292;2023-10-19T10:04:33;97192.02;;;11.97;63.63
69127;BME280;56688;50.234;19.292;2023-10-19T10:07:04;97196.00;;;11.94;63.86
69127;BME280;56688;50.234;19.292;2023-10-19T10:09:37;97193.07;;;11.92;62.84
69127;BME280;56688;50.234;19.292;2023-10-19T10:12:23;97188.61;;;11.93;62.21
69127;BME280;56688;50.234;19.292;2023-10-19T10:15:05;97187.53;;;11.89;61.18
69127;BME280;56688;50.234;19.292;2023-10-19T10:17:36;97180.67;;;11.82;61.90
69127;BME280;56688;50.234;19.292;2023-10-19T10:22:41;97170.79;;;11.79;62.46
69127;BME280;56688;50.234;19.292;2023-10-19T10:25:26;97165.70;;;11.81;62.58
69127;BME280;56688;50.234;19.292;2023-10-19T10:27:55;97157.55;;;11.83;63.24
69127;BME280;56688;50.234;19.292;2023-10-19T10:30:22;97152.02;;;11.86;62.92
69127;BME280;56688;50.234;19.292;2023-10-19T10:32:50;97148.73;;;11.86;63.01
69127;BME280;56688;50.234;19.292;2023-10-19T10:38:05;97144.05;;;11.93;63.87
69127;BME280;56688;50.234;19.292;2023-10-19T10:40:49;97142.16;;;11.96;63.85
69127;BME280;56688;50.234;19.292;2023-10-19T10:43:18;97136.02;;;11.99;64.08
69127;BME280;56688;50.234;19.292;2023-10-19T10:45:46;97126.61;;;12.02;63.98
69127;BME280;56688;50.234;19.292;2023-10-19T10:48:14;97123.19;;;12.00;63.42
69127;BME280;56688;50.234;19.292;2023-10-19T10:50:41;97113.83;;;11.98;64.33
69127;BME280;56688;50.234;19.292;2023-10-19T10:53:10;97109.98;;;11.98;63.97
69127;BME280;56688;50.234;19.292;2023-10-19T10:55:38;97105.77;;;11.99;64.72
69127;BME280;56688;50.234;19.292;2023-10-19T10:58:06;97097.23;;;12.01;65.33
69127;BME280;56688;50.234;19.292;2023-10-19T11:00:33;97088.56;;;12.05;65.34
69127;BME280;56688;50.234;19.292;2023-10-19T11:03:03;97083.59;;;12.05;65.56
69127;BME280;56688;50.234;19.292;2023-10-19T11:05:31;97074.06;;;11.96;65.73
69127;BME280;56688;50.234;19.292;2023-10-19T11:08:07;97069.45;;;11.89;66.77
69127;BME280;56688;50.234;19.292;2023-10-19T11:10:36;97071.88;;;11.88;68.34
69127;BME280;56688;50.234;19.292;2023-10-19T11:13:04;97073.39;;;11.94;69.25
69127;BME280;56688;50.234;19.292;2023-10-19T11:15:33;97070.72;;;11.99;68.45
69127;BME280;56688;50.234;19.292;2023-10-19T11:18:00;97072.91;;;12.06;68.19
69127;BME280;56688;50.234;19.292;2023-10-19T11:20:28;97063.83;;;12.11;68.21
69127;BME280;56688;50.234;19.292;2023-10-19T11:22:56;97060.03;;;12.19;68.52
69127;BME280;56688;50.234;19.292;2023-10-19T11:25:26;97054.83;;;12.26;68.34
69127;BME280;56688;50.234;19.292;2023-10-19T11:27:56;97043.85;;;12.28;68.54
69127;BME280;56688;50.234;19.292;2023-10-19T11:30:31;97039.71;;;12.30;68.96
69127;BME280;56688;50.234;19.292;2023-10-19T11:32:59;97039.48;;;12.32;69.11
69127;BME280;56688;50.234;19.292;2023-10-19T11:35:29;97038.02;;;12.33;69.75
69127;BME280;56688;50.234;19.292;2023-10-19T11:37:59;97032.98;;;12.38;69.40
69127;BME280;56688;50.234;19.292;2023-10-19T11:40:26;97032.15;;;12.40;68.39
69127;BME280;56688;50.234;19.292;2023-10-19T11:42:54;97027.59;;;12.36;69.00
69127;BME280;56688;50.234;19.292;2023-10-19T11:45:23;97031.29;;;12.36;69.47
69127;BME280;56688;50.234;19.292;2023-10-19T11:47:52;97028.39;;;12.41;69.94
69127;BME280;56688;50.234;19.292;2023-10-19T11:50:19;97025.17;;;12.43;69.93
69127;BME280;56688;50.234;19.292;2023-10-19T11:52:46;97027.17;;;12.42;70.44
69127;BME280;56688;50.234;19.292;2023-10-19T11:55:15;97028.08;;;12.42;70.54
69127;BME280;56688;50.234;19.292;2023-10-19T11:57:42;97033.04;;;12.39;70.42
69127;BME280;56688;50.234;19.292;2023-10-19T12:00:11;97025.75;;;12.39;69.74
69127;BME280;56688;50.234;19.292;2023-10-19T12:02:53;97028.19;;;12.37;69.95
69127;BME280;56688;50.234;19.292;2023-10-19T12:05:20;97030.18;;;12.40;70.23
69127;BME280;56688;50.234;19.292;2023-10-19T12:07:47;97030.46;;;12.46;70.70
69127;BME280;56688;50.234;19.292;2023-10-19T12:10:14;97025.20;;;12.50;70.61
69127;BME280;56688;50.234;19.292;2023-10-19T12:12:41;97028.98;;;12.55;70.58
69127;BME280;56688;50.234;19.292;2023-10-19T12:15:26;97026.54;;;12.58;71.12
69127;BME280;56688;50.234;19.292;2023-10-19T12:17:54;97026.91;;;12.61;72.15
69127;BME280;56688;50.234;19.292;2023-10-19T12:20:21;97022.69;;;12.67;72.60
69127;BME280;56688;50.234;19.292;2023-10-19T12:22:49;97016.77;;;12.73;73.15
69127;BME280;56688;50.234;19.292;2023-10-19T12:25:21;97010.10;;;12.83;72.78
69127;BME280;56688;50.234;19.292;2023-10-19T12:28:00;97005.89;;;12.93;72.76
69127;BME280;56688;50.234;19.292;2023-10-19T12:30:27;96999.39;;;13.04;72.43
69127;BME280;56688;50.234;19.292;2023-10-19T12:33:00;97001.31;;;13.13;72.54
69127;BME280;56688;50.234;19.292;2023-10-19T12:35:28;97000.09;;;13.21;72.24
69127;BME280;56688;50.234;19.292;2023-10-19T12:38:12;96994.84;;;13.27;72.58
69127;BME280;56688;50.234;19.292;2023-10-19T12:40:44;96993.91;;;13.29;72.48
69127;BME280;56688;50.234;19.292;2023-10-19T12:43:14;96991.48;;;13.32;72.28
69127;BME280;56688;50.234;19.292;2023-10-19T12:45:42;96988.30;;;13.37;72.54
69127;BME280;56688;50.234;19.292;2023-10-19T12:48:11;96983.13;;;13.42;72.67
69127;BME280;56688;50.234;19.292;2023-10-19T12:50:38;96986.61;;;13.48;72.53
69127;BME280;56688;50.234;19.292;2023-10-19T12:53:05;96982.29;;;13.53;72.28
69127;BME280;56688;50.234;19.292;2023-10-19T12:55:33;96983.42;;;13.54;72.06
69127;BME280;56688;50.234;19.292;2023-10-19T12:58:01;96982.92;;;13.52;72.18
69127;BME280;56688;50.234;19.292;2023-10-19T13:00:35;96982.73;;;13.48;72.30
69127;BME280;56688;50.234;19.292;2023-10-19T13:03:04;96979.95;;;13.44;72.58
69127;BME280;56688;50.234;19.292;2023-10-19T13:05:33;96975.39;;;13.44;72.93
69127;BME280;56688;50.234;19.292;2023-10-19T13:08:01;96967.66;;;13.44;73.13
69127;BME280;56688;50.234;19.292;2023-10-19T13:10:30;96961.59;;;13.40;73.34
69127;BME280;56688;50.234;19.292;2023-10-19T13:13:02;96960.06;;;13.39;73.89
69127;BME280;56688;50.234;19.292;2023-10-19T13:15:34;96956.23;;;13.37;73.64
69127;BME280;56688;50.234;19.292;2023-10-19T13:18:03;96954.40;;;13.36;74.19
69127;BME280;56688;50.234;19.292;2023-10-19T13:20:30;96951.69;;;13.39;74.53
69127;BME280;56688;50.234;19.292;2023-10-19T13:23:02;96944.02;;;13.42;74.61
69127;BME280;56688;50.234;19.292;2023-10-19T13:25:31;96944.02;;;13.44;74.29